Aneta, North Dakota
Current Conditions -  °F | °C
As of 10:58 AM on Saturday 20 Dec 2014 (Local Time) from KRDR Reporting Station
Haze Haze  
Wind Chill: -9°   Ceiling: 300
Heat Index: -3°   Visibility: 3mi
Dew Point: -3°   Wind: 10mph
Humidity: 100%   Direction: 210°SSW
Pressure: 30"   Gusts: NA
Location:  47.68°N, 97.99°W
Report Text: KRDR 201658Z AUTO 21009KT 3SM BR OVC003 M03/M03 A3000 RMK AO2 SLP177 T10331033
Loading
Personal Weather Stations






























Interactive Weather Map New forecast layout! Learn more

10-Day Weather Forecast

Advertisements
Track Severe Weather on mobile